sensor_id;sensor_type;location;lat;lon;timestamp;pressure;altitude;pressure_sealevel;temperature;humidity
50282;BME280;36176;51.506;10.272;2023-01-16T00:00:14;97961.59;;;4.20;76.29
50282;BME280;36176;51.506;10.272;2023-01-16T00:02:41;97960.41;;;4.28;75.09
50282;BME280;36176;51.506;10.272;2023-01-16T00:05:08;97960.91;;;4.36;74.65
50282;BME280;36176;51.506;10.272;2023-01-16T00:07:35;97948.28;;;4.44;74.50
50282;BME280;36176;51.506;10.272;2023-01-16T00:10:03;97946.28;;;4.49;74.17
50282;BME280;36176;51.506;10.272;2023-01-16T00:12:31;97946.72;;;4.59;73.48
50282;BME280;36176;51.506;10.272;2023-01-16T00:14:57;97935.16;;;4.63;73.67
50282;BME280;36176;51.506;10.272;2023-01-16T00:17:24;97938.63;;;4.63;73.49
50282;BME280;36176;51.506;10.272;2023-01-16T00:19:52;97925.56;;;4.62;73.40
50282;BME280;36176;51.506;10.272;2023-01-16T00:22:19;97930.69;;;4.65;74.28
50282;BME280;36176;51.506;10.272;2023-01-16T00:24:46;97923.66;;;4.65;73.92
50282;BME280;36176;51.506;10.272;2023-01-16T00:27:13;97926.97;;;4.69;74.16
50282;BME280;36176;51.506;10.272;2023-01-16T00:29:40;97928.75;;;4.68;74.06
50282;BME280;36176;51.506;10.272;2023-01-16T00:32:07;97916.41;;;4.71;73.83
50282;BME280;36176;51.506;10.272;2023-01-16T00:34:36;97901.63;;;4.69;73.86
50282;BME280;36176;51.506;10.272;2023-01-16T00:37:03;97889.50;;;4.67;73.83
50282;BME280;36176;51.506;10.272;2023-01-16T00:39:30;97894.69;;;4.50;74.00
50282;BME280;36176;51.506;10.272;2023-01-16T00:41:58;97897.06;;;4.37;74.31
50282;BME280;36176;51.506;10.272;2023-01-16T00:44:25;97886.72;;;4.15;75.02
50282;BME280;36176;51.506;10.272;2023-01-16T00:46:52;97877.81;;;4.00;76.12
50282;BME280;36176;51.506;10.272;2023-01-16T00:49:21;97871.06;;;3.94;76.64
50282;BME280;36176;51.506;10.272;2023-01-16T00:51:48;97872.78;;;3.95;76.54
50282;BME280;36176;51.506;10.272;2023-01-16T00:54:15;97868.59;;;3.91;77.18
50282;BME280;36176;51.506;10.272;2023-01-16T00:56:42;97860.94;;;3.87;77.75
50282;BME280;36176;51.506;10.272;2023-01-16T00:59:10;97859.09;;;3.89;77.53
50282;BME280;36176;51.506;10.272;2023-01-16T01:01:37;97851.28;;;3.87;78.23
50282;BME280;36176;51.506;10.272;2023-01-16T01:04:05;97854.22;;;3.81;78.36
50282;BME280;36176;51.506;10.272;2023-01-16T01:06:32;97844.84;;;3.75;78.54
50282;BME280;36176;51.506;10.272;2023-01-16T01:08:59;97840.53;;;3.74;78.59
50282;BME280;36176;51.506;10.272;2023-01-16T01:11:26;97835.78;;;3.82;78.32
50282;BME280;36176;51.506;10.272;2023-01-16T01:13:53;97839.91;;;3.88;78.03
50282;BME280;36176;51.506;10.272;2023-01-16T01:16:21;97838.91;;;3.91;77.94
50282;BME280;36176;51.506;10.272;2023-01-16T01:18:48;97842.94;;;3.98;77.54
50282;BME280;36176;51.506;10.272;2023-01-16T01:21:15;97835.63;;;4.04;77.87
50282;BME280;36176;51.506;10.272;2023-01-16T01:23:42;97822.19;;;4.12;77.85
50282;BME280;36176;51.506;10.272;2023-01-16T01:26:12;97821.09;;;4.16;77.58
50282;BME280;36176;51.506;10.272;2023-01-16T01:28:39;97812.91;;;4.24;77.19
50282;BME280;36176;51.506;10.272;2023-01-16T01:31:08;97815.41;;;4.25;77.52
50282;BME280;36176;51.506;10.272;2023-01-16T01:33:37;97816.03;;;4.31;76.96
50282;BME280;36176;51.506;10.272;2023-01-16T01:36:06;97808.06;;;4.34;77.25
50282;BME280;36176;51.506;10.272;2023-01-16T01:38:33;97808.91;;;4.34;78.26
50282;BME280;36176;51.506;10.272;2023-01-16T01:41:00;97803.59;;;4.36;78.40
50282;BME280;36176;51.506;10.272;2023-01-16T01:43:41;97794.72;;;4.38;79.17
50282;BME280;36176;51.506;10.272;2023-01-16T01:46:33;97792.31;;;4.34;80.05
50282;BME280;36176;51.506;10.272;2023-01-16T01:49:20;97788.06;;;4.31;79.86
50282;BME280;36176;51.506;10.272;2023-01-16T01:51:49;97786.19;;;4.33;80.24
50282;BME280;36176;51.506;10.272;2023-01-16T01:54:21;97782.97;;;4.28;81.18
50282;BME280;36176;51.506;10.272;2023-01-16T01:56:56;97776.94;;;4.26;80.86
50282;BME280;36176;51.506;10.272;2023-01-16T01:59:30;97771.56;;;4.29;81.38
50282;BME280;36176;51.506;10.272;2023-01-16T02:02:00;97768.84;;;4.31;81.38
50282;BME280;36176;51.506;10.272;2023-01-16T02:04:34;97761.16;;;4.28;81.23
50282;BME280;36176;51.506;10.272;2023-01-16T02:07:05;97762.75;;;4.30;81.13
50282;BME280;36176;51.506;10.272;2023-01-16T02:09:33;97759.47;;;4.26;81.86
50282;BME280;36176;51.506;10.272;2023-01-16T02:12:05;97755.91;;;4.28;81.83
50282;BME280;36176;51.506;10.272;2023-01-16T02:14:37;97748.88;;;4.28;82.12
50282;BME280;36176;51.506;10.272;2023-01-16T02:17:17;97746.41;;;4.25;82.46
50282;BME280;36176;51.506;10.272;2023-01-16T02:20:26;97735.53;;;4.15;83.63
50282;BME280;36176;51.506;10.272;2023-01-16T02:39:40;97696.63;;;3.71;85.31
50282;BME280;36176;51.506;10.272;2023-01-16T02:44:51;97695.97;;;3.66;86.00
50282;BME280;36176;51.506;10.272;2023-01-16T02:47:29;97686.41;;;3.65;86.03
50282;BME280;36176;51.506;10.272;2023-01-16T02:50:10;97681.19;;;3.65;86.04
50282;BME280;36176;51.506;10.272;2023-01-16T02:55:32;97676.00;;;3.63;85.58
50282;BME280;36176;51.506;10.272;2023-01-16T02:58:06;97674.59;;;3.56;85.67
50282;BME280;36176;51.506;10.272;2023-01-16T03:00:34;97669.56;;;3.52;86.04
50282;BME280;36176;51.506;10.272;2023-01-16T03:03:01;97655.44;;;3.56;85.89
50282;BME280;36176;51.506;10.272;2023-01-16T03:05:38;97648.28;;;3.59;85.88
50282;BME280;36176;51.506;10.272;2023-01-16T03:11:14;97620.09;;;3.65;85.52
50282;BME280;36176;51.506;10.272;2023-01-16T03:14:03;97620.47;;;3.57;84.82
50282;BME280;36176;51.506;10.272;2023-01-16T03:16:42;97626.63;;;3.56;85.01
50282;BME280;36176;51.506;10.272;2023-01-16T03:19:43;97621.88;;;3.64;84.42
50282;BME280;36176;51.506;10.272;2023-01-16T03:22:18;97615.69;;;3.65;83.92
50282;BME280;36176;51.506;10.272;2023-01-16T03:24:57;97608.78;;;3.64;83.86
50282;BME280;36176;51.506;10.272;2023-01-16T03:27:37;97605.44;;;3.60;84.23
50282;BME280;36176;51.506;10.272;2023-01-16T03:32:49;97597.38;;;3.65;84.30
50282;BME280;36176;51.506;10.272;2023-01-16T03:35:26;97599.38;;;3.77;84.56
50282;BME280;36176;51.506;10.272;2023-01-16T03:37:58;97594.47;;;3.89;84.32
50282;BME280;36176;51.506;10.272;2023-01-16T03:40:30;97591.38;;;3.98;84.00
50282;BME280;36176;51.506;10.272;2023-01-16T03:43:08;97583.19;;;4.04;84.12
50282;BME280;36176;51.506;10.272;2023-01-16T03:45:43;97573.66;;;4.03;83.49
50282;BME280;36176;51.506;10.272;2023-01-16T03:48:20;97572.94;;;3.99;84.03
50282;BME280;36176;51.506;10.272;2023-01-16T03:50:59;97574.13;;;3.94;83.49
50282;BME280;36176;51.506;10.272;2023-01-16T03:53:31;97572.44;;;3.93;83.56
50282;BME280;36176;51.506;10.272;2023-01-16T03:56:13;97558.69;;;3.88;83.66
50282;BME280;36176;51.506;10.272;2023-01-16T03:58:50;97545.09;;;3.81;84.12
50282;BME280;36176;51.506;10.272;2023-01-16T04:01:38;97555.34;;;3.86;84.38
50282;BME280;36176;51.506;10.272;2023-01-16T04:04:14;97548.38;;;3.84;84.54
50282;BME280;36176;51.506;10.272;2023-01-16T04:06:53;97548.22;;;3.88;84.28
50282;BME280;36176;51.506;10.272;2023-01-16T04:12:35;97536.03;;;4.04;83.88
50282;BME280;36176;51.506;10.272;2023-01-16T04:15:07;97527.31;;;4.03;83.24
50282;BME280;36176;51.506;10.272;2023-01-16T04:17:35;97522.16;;;4.02;82.85
50282;BME280;36176;51.506;10.272;2023-01-16T04:20:04;97516.16;;;4.00;83.48
50282;BME280;36176;51.506;10.272;2023-01-16T04:22:32;97516.22;;;3.98;82.84
50282;BME280;36176;51.506;10.272;2023-01-16T04:25:02;97505.53;;;4.03;83.30
50282;BME280;36176;51.506;10.272;2023-01-16T04:27:30;97503.56;;;4.07;82.72
50282;BME280;36176;51.506;10.272;2023-01-16T04:29:57;97501.47;;;4.13;82.55
50282;BME280;36176;51.506;10.272;2023-01-16T04:32:24;97501.94;;;4.21;82.29
50282;BME280;36176;51.506;10.272;2023-01-16T04:34:51;97497.28;;;4.26;81.92
50282;BME280;36176;51.506;10.272;2023-01-16T04:37:18;97499.69;;;4.31;82.16
50282;BME280;36176;51.506;10.272;2023-01-16T04:39:45;97490.88;;;4.32;81.88
50282;BME280;36176;51.506;10.272;2023-01-16T04:42:14;97486.63;;;4.30;82.24
50282;BME280;36176;51.506;10.272;2023-01-16T04:44:41;97478.00;;;4.28;81.98
50282;BME280;36176;51.506;10.272;2023-01-16T04:47:08;97471.09;;;4.26;82.05
50282;BME280;36176;51.506;10.272;2023-01-16T04:49:35;97466.16;;;4.20;82.31
50282;BME280;36176;51.506;10.272;2023-01-16T04:52:03;97465.38;;;4.18;81.83
50282;BME280;36176;51.506;10.272;2023-01-16T04:54:30;97460.31;;;4.15;82.39
50282;BME280;36176;51.506;10.272;2023-01-16T04:56:57;97455.91;;;4.16;82.14
50282;BME280;36176;51.506;10.272;2023-01-16T04:59:23;97461.56;;;4.08;82.61
50282;BME280;36176;51.506;10.272;2023-01-16T05:01:50;97465.88;;;4.09;82.92
50282;BME280;36176;51.506;10.272;2023-01-16T05:04:18;97466.75;;;4.10;82.97
50282;BME280;36176;51.506;10.272;2023-01-16T05:06:45;97451.91;;;4.09;83.09
50282;BME280;36176;51.506;10.272;2023-01-16T05:09:12;97451.91;;;4.09;83.12
50282;BME280;36176;51.506;10.272;2023-01-16T05:11:39;97431.06;;;4.07;83.56
50282;BME280;36176;51.506;10.272;2023-01-16T05:14:06;97437.44;;;4.01;83.55
50282;BME280;36176;51.506;10.272;2023-01-16T05:16:35;97434.06;;;3.99;83.70
50282;BME280;36176;51.506;10.272;2023-01-16T05:19:03;97426.38;;;3.96;83.76
50282;BME280;36176;51.506;10.272;2023-01-16T05:21:31;97431.09;;;3.90;84.07
50282;BME280;36176;51.506;10.272;2023-01-16T05:23:58;97437.44;;;3.86;83.89
50282;BME280;36176;51.506;10.272;2023-01-16T05:26:25;97426.25;;;3.82;84.16
50282;BME280;36176;51.506;10.272;2023-01-16T05:28:55;97416.97;;;3.76;84.65
50282;BME280;36176;51.506;10.272;2023-01-16T05:31:25;97407.88;;;3.66;84.81
50282;BME280;36176;51.506;10.272;2023-01-16T05:33:52;97412.72;;;3.56;84.75
50282;BME280;36176;51.506;10.272;2023-01-16T05:36:19;97405.28;;;3.49;85.17
50282;BME280;36176;51.506;10.272;2023-01-16T05:38:46;97406.28;;;3.46;84.79
50282;BME280;36176;51.506;10.272;2023-01-16T05:41:17;97395.38;;;3.38;85.59
50282;BME280;36176;51.506;10.272;2023-01-16T05:43:50;97386.91;;;3.33;85.61
50282;BME280;36176;51.506;10.272;2023-01-16T05:46:17;97380.22;;;3.27;86.15
50282;BME280;36176;51.506;10.272;2023-01-16T05:48:46;97380.31;;;3.26;86.13
50282;BME280;36176;51.506;10.272;2023-01-16T05:51:13;97378.06;;;3.35;85.93
50282;BME280;36176;51.506;10.272;2023-01-16T05:53:40;97367.66;;;3.34;85.33
50282;BME280;36176;51.506;10.272;2023-01-16T05:56:12;97364.97;;;3.35;85.47
50282;BME280;36176;51.506;10.272;2023-01-16T05:58:39;97360.81;;;3.31;85.26
50282;BME280;36176;51.506;10.272;2023-01-16T06:01:11;97356.81;;;3.24;85.72
50282;BME280;36176;51.506;10.272;2023-01-16T06:03:38;97351.81;;;3.19;85.65
50282;BME280;36176;51.506;10.272;2023-01-16T06:06:05;97348.66;;;3.13;85.50
50282;BME280;36176;51.506;10.272;2023-01-16T06:08:36;97346.22;;;3.10;85.44
50282;BME280;36176;51.506;10.272;2023-01-16T06:11:03;97345.97;;;3.14;85.61
50282;BME280;36176;51.506;10.272;2023-01-16T06:13:30;97345.13;;;3.14;85.72
50282;BME280;36176;51.506;10.272;2023-01-16T06:15:57;97338.44;;;3.08;85.55
50282;BME280;36176;51.506;10.272;2023-01-16T06:18:24;97344.00;;;3.02;85.75
50282;BME280;36176;51.506;10.272;2023-01-16T06:20:51;97336.03;;;3.04;85.89
50282;BME280;36176;51.506;10.272;2023-01-16T06:23:18;97328.28;;;3.02;85.31
50282;BME280;36176;51.506;10.272;2023-01-16T06:25:48;97331.13;;;2.97;86.32
50282;BME280;36176;51.506;10.272;2023-01-16T06:28:15;97321.06;;;2.90;86.04
50282;BME280;36176;51.506;10.272;2023-01-16T06:30:43;97317.69;;;2.88;85.92
50282;BME280;36176;51.506;10.272;2023-01-16T06:33:13;97310.91;;;2.84;86.15
50282;BME280;36176;51.506;10.272;2023-01-16T06:35:42;97307.59;;;2.80;86.08
50282;BME280;36176;51.506;10.272;2023-01-16T06:38:10;97308.44;;;2.81;86.07
50282;BME280;36176;51.506;10.272;2023-01-16T06:40:37;97299.66;;;2.82;86.26
50282;BME280;36176;51.506;10.272;2023-01-16T06:43:04;97305.91;;;2.79;86.57
50282;BME280;36176;51.506;10.272;2023-01-16T06:45:33;97296.38;;;2.78;86.45
50282;BME280;36176;51.506;10.272;2023-01-16T06:48:00;97287.31;;;2.85;86.59
50282;BME280;36176;51.506;10.272;2023-01-16T06:50:27;97290.53;;;2.90;86.59
50282;BME280;36176;51.506;10.272;2023-01-16T06:52:54;97284.97;;;2.96;86.41
50282;BME280;36176;51.506;10.272;2023-01-16T06:55:21;97283.44;;;2.92;86.47
50282;BME280;36176;51.506;10.272;2023-01-16T06:57:48;97278.03;;;2.95;86.37
50282;BME280;36176;51.506;10.272;2023-01-16T07:00:18;97271.03;;;2.96;86.20
50282;BME280;36176;51.506;10.272;2023-01-16T07:02:51;97259.66;;;2.97;86.28
50282;BME280;36176;51.506;10.272;2023-01-16T07:05:25;97260.50;;;2.97;86.21
50282;BME280;36176;51.506;10.272;2023-01-16T07:07:55;97252.41;;;3.02;85.91
50282;BME280;36176;51.506;10.272;2023-01-16T07:10:22;97257.72;;;3.01;85.94
50282;BME280;36176;51.506;10.272;2023-01-16T07:12:51;97270.03;;;2.98;85.91
50282;BME280;36176;51.506;10.272;2023-01-16T07:15:20;97257.06;;;2.97;86.24
50282;BME280;36176;51.506;10.272;2023-01-16T07:18:11;97248.09;;;3.01;86.18
50282;BME280;36176;51.506;10.272;2023-01-16T07:21:12;97247.44;;;2.97;86.55
50282;BME280;36176;51.506;10.272;2023-01-16T07:24:04;97240.66;;;2.93;86.57
50282;BME280;36176;51.506;10.272;2023-01-16T07:26:34;97240.66;;;2.93;86.92
50282;BME280;36176;51.506;10.272;2023-01-16T07:29:03;97232.41;;;3.01;87.01
50282;BME280;36176;51.506;10.272;2023-01-16T07:31:34;97237.16;;;3.10;86.55
50282;BME280;36176;51.506;10.272;2023-01-16T07:34:01;97224.84;;;3.12;86.57
50282;BME280;36176;51.506;10.272;2023-01-16T07:36:28;97227.22;;;3.17;86.55
50282;BME280;36176;51.506;10.272;2023-01-16T07:38:55;97223.53;;;3.21;86.16
50282;BME280;36176;51.506;10.272;2023-01-16T07:41:22;97217.94;;;3.27;86.16
50282;BME280;36176;51.506;10.272;2023-01-16T07:43:50;97215.91;;;3.32;86.24
50282;BME280;36176;51.506;10.272;2023-01-16T07:46:18;97211.56;;;3.33;86.06
50282;BME280;36176;51.506;10.272;2023-01-16T07:48:45;97212.22;;;3.36;86.04
50282;BME280;36176;51.506;10.272;2023-01-16T07:51:12;97206.72;;;3.41;85.36
50282;BME280;36176;51.506;10.272;2023-01-16T07:53:40;97201.25;;;3.46;85.20
50282;BME280;36176;51.506;10.272;2023-01-16T07:56:10;97191.44;;;3.49;84.92
50282;BME280;36176;51.506;10.272;2023-01-16T07:58:42;97187.22;;;3.47;85.32
50282;BME280;36176;51.506;10.272;2023-01-16T08:01:10;97190.59;;;3.49;84.84
50282;BME280;36176;51.506;10.272;2023-01-16T08:03:37;97187.06;;;3.50;84.85
50282;BME280;36176;51.506;10.272;2023-01-16T08:06:07;97182.50;;;3.53;84.72
50282;BME280;36176;51.506;10.272;2023-01-16T08:08:34;97170.09;;;3.57;84.77
50282;BME280;36176;51.506;10.272;2023-01-16T08:11:01;97163.91;;;3.58;84.72
50282;BME280;36176;51.506;10.272;2023-01-16T08:13:51;97161.88;;;3.63;84.14
50282;BME280;36176;51.506;10.272;2023-01-16T08:16:18;97154.59;;;3.68;83.81
50282;BME280;36176;51.506;10.272;2023-01-16T08:18:45;97147.25;;;3.75;83.37
50282;BME280;36176;51.506;10.272;2023-01-16T08:21:16;97146.72;;;3.84;82.97
50282;BME280;36176;51.506;10.272;2023-01-16T08:23:43;97146.78;;;3.98;81.77
50282;BME280;36176;51.506;10.272;2023-01-16T08:26:12;97135.09;;;4.04;81.73
50282;BME280;36176;51.506;10.272;2023-01-16T08:28:40;97141.00;;;4.08;81.02
50282;BME280;36176;51.506;10.272;2023-01-16T08:31:13;97133.03;;;4.09;80.10
50282;BME280;36176;51.506;10.272;2023-01-16T08:33:42;97124.66;;;4.18;79.94
50282;BME280;36176;51.506;10.272;2023-01-16T08:36:11;97118.94;;;4.26;79.95
50282;BME280;36176;51.506;10.272;2023-01-16T08:38:40;97129.66;;;4.37;79.27
50282;BME280;36176;51.506;10.272;2023-01-16T08:41:07;97115.03;;;4.47;78.95
50282;BME280;36176;51.506;10.272;2023-01-16T08:43:58;97120.41;;;4.46;78.47
50282;BME280;36176;51.506;10.272;2023-01-16T08:46:46;97119.44;;;4.47;77.66
50282;BME280;36176;51.506;10.272;2023-01-16T08:49:36;97119.19;;;4.52;77.22
50282;BME280;36176;51.506;10.272;2023-01-16T08:52:25;97111.38;;;4.50;76.83
50282;BME280;36176;51.506;10.272;2023-01-16T08:54:54;97109.06;;;4.45;76.83
50282;BME280;36176;51.506;10.272;2023-01-16T08:57:27;97091.00;;;4.41;77.07
50282;BME280;36176;51.506;10.272;2023-01-16T08:59:55;97090.88;;;4.42;77.44
50282;BME280;36176;51.506;10.272;2023-01-16T09:02:24;97091.72;;;4.43;77.42
50282;BME280;36176;51.506;10.272;2023-01-16T09:04:52;97083.69;;;4.46;77.16
50282;BME280;36176;51.506;10.272;2023-01-16T09:07:23;97090.41;;;4.50;77.47
50282;BME280;36176;51.506;10.272;2023-01-16T09:09:52;97082.47;;;4.52;76.46
50282;BME280;36176;51.506;10.272;2023-01-16T09:12:19;97070.03;;;4.55;76.60
50282;BME280;36176;51.506;10.272;2023-01-16T09:15:05;97064.78;;;4.55;76.01
50282;BME280;36176;51.506;10.272;2023-01-16T09:17:34;97061.13;;;4.58;76.48
50282;BME280;36176;51.506;10.272;2023-01-16T09:20:01;97054.53;;;5.21;75.01
50282;BME280;36176;51.506;10.272;2023-01-16T09:22:31;97052.31;;;6.22;72.28
50282;BME280;36176;51.506;10.272;2023-01-16T09:25:00;97046.88;;;7.00;70.12
50282;BME280;36176;51.506;10.272;2023-01-16T09:27:27;97044.50;;;7.45;67.53
50282;BME280;36176;51.506;10.272;2023-01-16T09:29:54;97040.78;;;7.48;65.55
50282;BME280;36176;51.506;10.272;2023-01-16T09:32:21;97033.22;;;7.19;66.37
50282;BME280;36176;51.506;10.272;2023-01-16T09:34:49;97035.03;;;6.69;66.86
50282;BME280;36176;51.506;10.272;2023-01-16T09:37:17;97032.66;;;6.40;68.37
50282;BME280;36176;51.506;10.272;2023-01-16T09:39:44;97020.53;;;6.25;69.20
50282;BME280;36176;51.506;10.272;2023-01-16T09:42:27;97015.81;;;6.04;68.81
50282;BME280;36176;51.506;10.272;2023-01-16T09:45:22;97013.19;;;6.04;69.55
50282;BME280;36176;51.506;10.272;2023-01-16T09:47:52;97010.34;;;6.07;69.46
50282;BME280;36176;51.506;10.272;2023-01-16T09:52:59;96981.28;;;6.34;69.28
50282;BME280;36176;51.506;10.272;2023-01-16T09:55:47;96970.22;;;6.55;66.72
50282;BME280;36176;51.506;10.272;2023-01-16T09:58:40;96982.63;;;6.66;65.36
50282;BME280;36176;51.506;10.272;2023-01-16T10:01:20;96955.06;;;6.58;66.67
50282;BME280;36176;51.506;10.272;2023-01-16T10:03:55;96942.34;;;6.52;66.11
50282;BME280;36176;51.506;10.272;2023-01-16T10:06:32;96937.69;;;6.56;66.43
50282;BME280;36176;51.506;10.272;2023-01-16T10:09:19;96928.25;;;7.01;65.25
50282;BME280;36176;51.506;10.272;2023-01-16T10:11:58;96907.78;;;7.64;62.69
50282;BME280;36176;51.506;10.272;2023-01-16T10:17:48;96886.59;;;8.22;61.48
50282;BME280;36176;51.506;10.272;2023-01-16T10:23:43;96870.25;;;7.61;60.37
50282;BME280;36176;51.506;10.272;2023-01-16T10:26:22;96867.72;;;7.01;61.95
50282;BME280;36176;51.506;10.272;2023-01-16T10:34:21;96847.75;;;8.36;60.19
50282;BME280;36176;51.506;10.272;2023-01-16T10:36:53;96839.13;;;8.88;59.18
50282;BME280;36176;51.506;10.272;2023-01-16T10:39:33;96836.88;;;8.72;58.46
50282;BME280;36176;51.506;10.272;2023-01-16T10:45:13;96819.94;;;8.43;58.08
50282;BME280;36176;51.506;10.272;2023-01-16T10:47:59;96817.84;;;8.58;57.74
50282;BME280;36176;51.506;10.272;2023-01-16T10:50:45;96796.38;;;8.62;58.82
50282;BME280;36176;51.506;10.272;2023-01-16T10:53:14;96778.34;;;8.13;59.33
50282;BME280;36176;51.506;10.272;2023-01-16T10:55:44;96776.97;;;7.86;58.92
50282;BME280;36176;51.506;10.272;2023-01-16T10:58:37;96768.56;;;7.58;59.88
50282;BME280;36176;51.506;10.272;2023-01-16T11:01:24;96754.91;;;7.19;61.56
50282;BME280;36176;51.506;10.272;2023-01-16T11:04:01;96739.28;;;6.82;62.99
50282;BME280;36176;51.506;10.272;2023-01-16T11:06:29;96723.91;;;6.65;63.15
50282;BME280;36176;51.506;10.272;2023-01-16T11:09:06;96709.34;;;6.61;63.88
50282;BME280;36176;51.506;10.272;2023-01-16T11:11:37;96706.41;;;6.53;63.24
50282;BME280;36176;51.506;10.272;2023-01-16T11:14:26;96691.84;;;6.60;64.06
50282;BME280;36176;51.506;10.272;2023-01-16T11:17:24;96692.78;;;6.48;64.24
50282;BME280;36176;51.506;10.272;2023-01-16T11:20:17;96690.72;;;6.40;64.92
50282;BME280;36176;51.506;10.272;2023-01-16T11:22:54;96668.19;;;6.25;65.24
50282;BME280;36176;51.506;10.272;2023-01-16T11:25:27;96673.53;;;6.12;64.39
50282;BME280;36176;51.506;10.272;2023-01-16T11:27:56;96666.97;;;6.17;65.20
50282;BME280;36176;51.506;10.272;2023-01-16T11:30:33;96664.91;;;6.45;64.33
50282;BME280;36176;51.506;10.272;2023-01-16T11:33:12;96665.50;;;6.49;63.79
50282;BME280;36176;51.506;10.272;2023-01-16T11:35:47;96671.50;;;6.51;63.78
50282;BME280;36176;51.506;10.272;2023-01-16T11:38:17;96664.44;;;6.40;63.30
50282;BME280;36176;51.506;10.272;2023-01-16T11:40:46;96662.88;;;6.37;64.43
50282;BME280;36176;51.506;10.272;2023-01-16T11:43:17;96659.28;;;6.38;63.90
50282;BME280;36176;51.506;10.272;2023-01-16T11:46:21;96641.44;;;6.31;63.94
50282;BME280;36176;51.506;10.272;2023-01-16T11:49:03;96635.41;;;6.17;64.69
50282;BME280;36176;51.506;10.272;2023-01-16T11:51:32;96641.25;;;6.10;65.76
50282;BME280;36176;51.506;10.272;2023-01-16T11:54:01;96639.81;;;6.06;65.09
50282;BME280;36176;51.506;10.272;2023-01-16T11:56:41;96636.97;;;6.09;64.56
50282;BME280;36176;51.506;10.272;2023-01-16T12:04:59;96622.63;;;6.13;64.52
50282;BME280;36176;51.506;10.272;2023-01-16T12:08:11;96622.25;;;6.06;64.69
50282;BME280;36176;51.506;10.272;2023-01-16T12:11:07;96608.88;;;6.09;64.83
50282;BME280;36176;51.506;10.272;2023-01-16T12:14:05;96599.03;;;6.00;65.64
50282;BME280;36176;51.506;10.272;2023-01-16T12:16:59;96601.06;;;5.96;65.73
50282;BME280;36176;51.506;10.272;2023-01-16T12:28:01;96582.03;;;5.69;68.13
50282;BME280;36176;51.506;10.272;2023-01-16T12:31:05;96583.06;;;5.55;69.65
50282;BME280;36176;51.506;10.272;2023-01-16T12:37:10;96580.22;;;5.34;73.83
50282;BME280;36176;51.506;10.272;2023-01-16T12:42:42;96574.91;;;5.23;77.74
50282;BME280;36176;51.506;10.272;2023-01-16T12:45:44;96569.09;;;5.30;76.18
50282;BME280;36176;51.506;10.272;2023-01-16T12:54:07;96554.22;;;5.66;74.31
50282;BME280;36176;51.506;10.272;2023-01-16T13:04:43;96537.88;;;5.74;72.29
50282;BME280;36176;51.506;10.272;2023-01-16T13:07:16;96539.19;;;5.68;72.84
50282;BME280;36176;51.506;10.272;2023-01-16T13:10:10;96537.47;;;5.56;72.32
50282;BME280;36176;51.506;10.272;2023-01-16T13:13:12;96538.31;;;5.32;74.40
50282;BME280;36176;51.506;10.272;2023-01-16T13:15:54;96536.91;;;5.16;73.93
50282;BME280;36176;51.506;10.272;2023-01-16T13:18:26;96522.69;;;4.94;75.53
50282;BME280;36176;51.506;10.272;2023-01-16T13:20:57;96517.50;;;4.81;76.27
50282;BME280;36176;51.506;10.272;2023-01-16T13:23:42;96523.22;;;4.62;77.04
50282;BME280;36176;51.506;10.272;2023-01-16T13:26:15;96521.13;;;4.42;77.29
50282;BME280;36176;51.506;10.272;2023-01-16T13:29:07;96513.59;;;4.24;79.19
50282;BME280;36176;51.506;10.272;2023-01-16T13:31:53;96517.25;;;4.09;79.80
50282;BME280;36176;51.506;10.272;2023-01-16T13:34:32;96518.50;;;4.03;81.32
50282;BME280;36176;51.506;10.272;2023-01-16T13:37:30;96507.00;;;4.06;81.15
50282;BME280;36176;51.506;10.272;2023-01-16T13:43:17;96493.88;;;4.06;82.17
50282;BME280;36176;51.506;10.272;2023-01-16T13:46:04;96506.16;;;4.05;82.19
50282;BME280;36176;51.506;10.272;2023-01-16T13:48:33;96491.06;;;3.96;82.34
50282;BME280;36176;51.506;10.272;2023-01-16T13:51:13;96499.66;;;3.86;84.21
50282;BME280;36176;51.506;10.272;2023-01-16T13:53:50;96484.75;;;3.73;84.44
50282;BME280;36176;51.506;10.272;2023-01-16T13:56:21;96476.59;;;3.65;84.21
50282;BME280;36176;51.506;10.272;2023-01-16T13:59:04;96467.03;;;3.51;85.44
50282;BME280;36176;51.506;10.272;2023-01-16T14:06:50;96460.81;;;3.39;87.09
50282;BME280;36176;51.506;10.272;2023-01-16T14:15:55;96428.06;;;3.47;85.29
50282;BME280;36176;51.506;10.272;2023-01-16T14:24:17;96399.81;;;3.65;83.78
50282;BME280;36176;51.506;10.272;2023-01-16T14:29:28;96399.19;;;3.74;82.69
50282;BME280;36176;51.506;10.272;2023-01-16T14:32:16;96376.25;;;3.77;82.88
50282;BME280;36176;51.506;10.272;2023-01-16T14:35:03;96364.63;;;3.81;82.70
50282;BME280;36176;51.506;10.272;2023-01-16T14:37:53;96367.09;;;3.83;80.88
50282;BME280;36176;51.506;10.272;2023-01-16T14:40:27;96354.44;;;3.90;80.46
50282;BME280;36176;51.506;10.272;2023-01-16T14:43:23;96338.84;;;3.88;79.14
50282;BME280;36176;51.506;10.272;2023-01-16T14:48:59;96353.28;;;3.94;79.51
50282;BME280;36176;51.506;10.272;2023-01-16T14:51:59;96355.56;;;3.98;78.89
50282;BME280;36176;51.506;10.272;2023-01-16T14:54:45;96345.00;;;4.00;78.81
50282;BME280;36176;51.506;10.272;2023-01-16T14:57:30;96342.16;;;4.03;78.48
50282;BME280;36176;51.506;10.272;2023-01-16T15:00:09;96335.84;;;4.05;78.18
50282;BME280;36176;51.506;10.272;2023-01-16T15:02:49;96340.53;;;4.13;78.06
50282;BME280;36176;51.506;10.272;2023-01-16T15:05:32;96342.75;;;4.19;77.74
50282;BME280;36176;51.506;10.272;2023-01-16T15:08:26;96329.09;;;4.27;76.69
50282;BME280;36176;51.506;10.272;2023-01-16T15:10:55;96322.06;;;4.28;76.94
50282;BME280;36176;51.506;10.272;2023-01-16T15:13:29;96310.63;;;4.29;76.51
50282;BME280;36176;51.506;10.272;2023-01-16T15:16:21;96299.19;;;4.30;75.79
50282;BME280;36176;51.506;10.272;2023-01-16T15:19:20;96299.75;;;4.22;76.02
50282;BME280;36176;51.506;10.272;2023-01-16T15:22:16;96289.69;;;4.16;76.22
50282;BME280;36176;51.506;10.272;2023-01-16T15:24:56;96289.31;;;4.09;76.30